Overview Statistics Trail Chart Weather Telemetry Raw packets
 

This is the latest recevied weather packets stored in our database for station/object K6LOT-13. If no packets are shown the sender has not sent any weather packets the latest 10 day(s).

<< 53 54 55 56 57 58 59 >>
Time Temp. Humidity Pressure Rain* Wind** Luminosity Snow
1788204175 31.67° C 53% 1015.1 hPa 0 mm - - -
1788203559 31.67° C 55% 1015.2 hPa 0 mm - - -
1788203251 31.67° C 55% 1015.2 hPa 0 mm - - -
1788202942 31.11° C 55% 1015.2 hPa 0 mm - - -
1788202635 31.11° C 55% 1015.3 hPa 0 mm - - -
1788202326 30.56° C 56% 1015.2 hPa 0 mm - - -
1788202019 30.56° C 55% 1015.3 hPa 0 mm - - -
1788201817 30.56° C 57% 1015.2 hPa 0 mm - - -
1788200506 29.44° C 60% 1015.3 hPa 0 mm - - -
1788199553 28.89° C 61% 1015.5 hPa 0 mm - - -
1788199244 28.89° C 61% 1015.4 hPa 0 mm - - -
1788198966 28.89° C 61% 1015.5 hPa 0 mm - - -
1788198562 28.33° C 62% 1015.5 hPa 0 mm - - -
1788197997 27.78° C 64% 1015.5 hPa 0 mm - - -
1788197619 26.67° C 66% 1015.5 hPa 0 mm - - -
1788197073 26.67° C 68% 1015.5 hPa 0 mm - - -
1788196764 26.11° C 69% 1015.5 hPa 0 mm - - -
1788196457 25.56° C 70% 1015.4 hPa 0 mm - - -
1788195902 23.89° C 74% 1015.4 hPa 0 mm - - -
1788195866 24.44° C 72% 1015.4 hPa 0 mm - - -
1788195229 23.33° C 75% 1015.3 hPa 0 mm - - -
1788195224 23.33° C 74% 1015.3 hPa 0 mm - - -
1788194675 22.78° C 76% 1015.2 hPa 0 mm - - -
1788194633 22.78° C 75% 1015.3 hPa 0 mm - - -
1788193991 22.22° C 75% 1015.2 hPa 0 mm - - -

* Rain latest hour (hover to see other rain measurements)
** Current wind speed in m/s (hover to see current wind gust speed)